HECA/CAI METAR and TAF weather

Enter ICAO airport designator
Station Type Date Time Source
HECA METAR 2020/01/21 21:30 UTC NOAA

HECA 212130Z 31005KT 6000 SCT025 11/05 Q1024 NOSIG


Station Type Date Time Source
HECA Decoded METAR 2020/01/21 21:30 UTC NOAA

Cairo Airport, Egypt (HECA) 30-08N 031-24E 74M
Jan 21, 2020 - 04:30 PM EST / 2020.01.21 2130 UTC
Wind: from the NW (310 degrees) at 6 MPH (5 KT):0
Visibility: 3 mile(s):0
Sky conditions: partly cloudy
Temperature: 51 F (11 C)
Dew Point: 41 F (5 C)
Relative Humidity: 66%
Pressure (altimeter): 30.24 in. Hg (1024 hPa)
ob: HECA 212130Z 31005KT 6000 SCT025 11/05 Q1024 NOSIG
cycle: 21

Station Type Date Time Source
HECA TAF 2020/01/21 18:00 UTC NOAA

TAF HECA 211700Z 2118/2224 33009KT 9999 SCT025 SCT070
TEMPO 2200/2206 VRB03KT 4000 BR NSC

Example: see airport list